Time;durP1;ratioP1;P1;durP2;ratioP2;P2;SDS_P1;SDS_P2;PMS_P1;PMS_P2;Temp;Humidity;BMP_temperature;BMP_pressure;BME280_temperature;BME280_humidity;BME280_pressure;Samples;Min_cycle;Max_cycle;Signal;HPM_P1;HPM_P2
2021/12/15 00:02:21;;;;;;;32.37;19.00;;;12.20;99.90;;;;;;5068356;28;21854;-79
2021/12/15 00:04:51;;;;;;;27.23;17.50;;;12.20;99.90;;;;;;5068435;28;20297;-80
2021/12/15 00:07:18;;;;;;;27.33;17.63;;;12.20;99.90;;;;;;5063797;28;20355;-79
2021/12/15 00:09:45;;;;;;;24.67;16.50;;;12.20;99.90;;;;;;5067885;28;20504;-80
2021/12/15 00:12:14;;;;;;;26.97;16.97;;;12.20;99.90;;;;;;5066993;28;20222;-79
2021/12/15 00:14:41;;;;;;;27.37;17.60;;;12.20;99.90;;;;;;5068106;28;20315;-80
2021/12/15 00:17:09;;;;;;;30.17;17.67;;;12.20;99.90;;;;;;5067638;28;20227;-80
2021/12/15 00:19:36;;;;;;;27.83;17.23;;;12.20;99.90;;;;;;5078288;28;20768;-80
2021/12/15 00:22:05;;;;;;;28.07;17.43;;;12.20;99.90;;;;;;5066156;28;20769;-79
2021/12/15 00:24:31;;;;;;;32.23;19.63;;;12.20;99.90;;;;;;5071052;28;20753;-78
2021/12/15 00:26:58;;;;;;;28.80;17.83;;;12.20;99.90;;;;;;5065212;28;20220;-79
2021/12/15 00:29:27;;;;;;;30.90;18.47;;;12.20;99.90;;;;;;5065223;28;20583;-79
2021/12/15 00:31:54;;;;;;;29.53;17.67;;;12.20;99.90;;;;;;5069685;28;20221;-79
2021/12/15 00:34:21;;;;;;;29.30;18.23;;;12.20;99.90;;;;;;5058933;28;20221;-79
2021/12/15 00:36:49;;;;;;;28.40;17.00;;;12.20;99.90;;;;;;5064995;28;20222;-79
2021/12/15 00:39:18;;;;;;;27.27;18.33;;;12.20;99.90;;;;;;5067181;28;20237;-79
2021/12/15 00:41:46;;;;;;;26.80;16.87;;;12.20;99.90;;;;;;5066355;28;20229;-78
2021/12/15 00:44:13;;;;;;;27.80;17.93;;;12.20;99.90;;;;;;5071153;28;20229;-79
2021/12/15 00:46:44;;;;;;;27.20;17.90;;;12.30;99.90;;;;;;5061424;28;20242;-79
2021/12/15 00:49:12;;;;;;;27.57;18.13;;;12.30;99.90;;;;;;5070431;28;20292;-79
2021/12/15 00:51:40;;;;;;;26.00;17.57;;;12.30;99.90;;;;;;5069017;28;20293;-78
2021/12/15 00:54:08;;;;;;;25.43;16.63;;;12.30;99.90;;;;;;5068289;28;20222;-79
2021/12/15 00:56:35;;;;;;;26.73;17.03;;;12.30;99.90;;;;;;5068712;28;20583;-79
2021/12/15 00:59:03;;;;;;;27.23;17.37;;;12.30;99.90;;;;;;5067555;28;20239;-79
2021/12/15 01:01:30;;;;;;;27.40;17.17;;;12.30;99.90;;;;;;5081630;28;20226;-80
2021/12/15 01:03:59;;;;;;;25.50;16.63;;;12.30;99.90;;;;;;5068689;28;20224;-80
2021/12/15 01:06:26;;;;;;;29.20;18.23;;;12.30;99.90;;;;;;5071060;28;20324;-79
2021/12/15 01:08:58;;;;;;;28.77;17.37;;;12.30;99.90;;;;;;5088993;28;20254;-80
2021/12/15 01:11:32;;;;;;;27.57;17.20;;;12.30;99.90;;;;;;5067029;28;20776;-80
2021/12/15 01:19:51;;;;;;;27.50;17.10;;;12.30;99.90;;;;;;5067599;28;20221;-79
2021/12/15 01:22:25;;;;;;;27.27;17.33;;;12.30;99.90;;;;;;5062107;28;20236;-80
2021/12/15 01:24:53;;;;;;;25.27;16.30;;;12.30;99.90;;;;;;5062984;28;20690;-80
2021/12/15 01:27:20;;;;;;;26.33;16.33;;;12.30;99.90;;;;;;5070850;28;20224;-80
2021/12/15 01:29:47;;;;;;;23.63;15.80;;;12.40;99.90;;;;;;5074469;28;20323;-80
2021/12/15 01:32:14;;;;;;;25.20;16.50;;;12.40;99.90;;;;;;5065293;28;20227;-80
2021/12/15 01:34:42;;;;;;;26.87;16.57;;;12.40;99.90;;;;;;5068094;28;20219;-81
2021/12/15 01:37:09;;;;;;;28.17;16.97;;;12.30;99.90;;;;;;5066643;28;20243;-80
2021/12/15 01:39:36;;;;;;;26.87;16.63;;;12.40;99.90;;;;;;5073706;28;20257;-80
2021/12/15 01:42:04;;;;;;;26.47;16.13;;;12.40;99.90;;;;;;5069629;28;20311;-80
2021/12/15 01:47:15;;;;;;;27.17;16.10;;;12.30;99.90;;;;;;5064279;28;20216;-80
2021/12/15 01:49:46;;;;;;;26.00;16.40;;;12.40;99.90;;;;;;5067317;28;20234;-80
2021/12/15 01:52:16;;;;;;;28.87;16.53;;;12.30;99.90;;;;;;5067432;28;20276;-79
2021/12/15 01:54:46;;;;;;;25.60;16.47;;;12.30;99.90;;;;;;5061286;28;20226;-78
2021/12/15 01:57:15;;;;;;;23.93;15.67;;;12.30;99.90;;;;;;5064631;28;20249;-79
2021/12/15 01:59:46;;;;;;;23.80;15.57;;;12.30;99.90;;;;;;5063331;28;20743;-79
2021/12/15 02:02:13;;;;;;;24.00;15.90;;;12.30;99.90;;;;;;5064260;28;20225;-80
2021/12/15 02:04:40;;;;;;;23.40;15.83;;;12.30;99.90;;;;;;5057793;28;20702;-80
2021/12/15 02:07:12;;;;;;;23.43;15.60;;;12.30;99.90;;;;;;5060527;28;20227;-79
2021/12/15 02:10:01;;;;;;;25.10;16.87;;;12.30;99.90;;;;;;5064669;28;20237;-79
2021/12/15 02:12:35;;;;;;;25.13;16.03;;;12.30;99.90;;;;;;5060120;28;20725;-79
2021/12/15 02:15:08;;;;;;;25.90;15.77;;;12.30;99.90;;;;;;5060483;28;20766;-79
2021/12/15 02:17:35;;;;;;;23.50;15.67;;;12.30;99.90;;;;;;5068882;28;20328;-80
2021/12/15 02:20:02;;;;;;;23.63;16.23;;;12.30;99.90;;;;;;5067280;28;20237;-80
2021/12/15 02:22:32;;;;;;;24.90;16.90;;;12.30;99.90;;;;;;5062856;28;20912;-81
2021/12/15 02:25:00;;;;;;;25.13;15.90;;;12.30;99.90;;;;;;5081666;28;20222;-80
2021/12/15 02:27:33;;;;;;;23.63;16.57;;;12.30;99.90;;;;;;5058164;28;20268;-80
2021/12/15 02:30:15;;;;;;;26.17;17.60;;;12.30;99.90;;;;;;5079263;28;20225;-79
2021/12/15 02:33:01;;;;;;;24.00;16.70;;;12.30;99.90;;;;;;5064638;28;20232;-79
2021/12/15 02:38:13;;;;;;;27.37;16.47;;;12.40;99.90;;;;;;5060458;28;20225;-79
2021/12/15 02:40:40;;;;;;;26.03;18.07;;;12.40;99.90;;;;;;5064545;28;20304;-80
2021/12/15 02:43:07;;;;;;;30.53;18.03;;;12.40;99.90;;;;;;5066682;28;20248;-80
2021/12/15 02:45:35;;;;;;;25.63;16.93;;;12.40;99.90;;;;;;5066542;28;20600;-79
2021/12/15 02:48:02;;;;;;;29.40;18.20;;;12.40;99.90;;;;;;5062457;28;20244;-79
2021/12/15 02:50:30;;;;;;;27.10;17.67;;;12.40;99.90;;;;;;5068593;28;20322;-80
2021/12/15 02:52:59;;;;;;;28.40;18.13;;;12.40;99.90;;;;;;5066512;28;20216;-80
2021/12/15 02:55:28;;;;;;;27.63;18.27;;;12.40;99.90;;;;;;5068551;28;20238;-80
2021/12/15 02:57:55;;;;;;;29.97;18.67;;;12.40;99.90;;;;;;5062097;28;20692;-79
2021/12/15 03:00:25;;;;;;;32.37;18.03;;;12.40;99.90;;;;;;5078640;28;20220;-79
2021/12/15 03:05:44;;;;;;;29.43;18.33;;;12.40;99.90;;;;;;5060068;28;20226;-79
2021/12/15 03:08:15;;;;;;;31.50;19.13;;;12.40;99.90;;;;;;5065003;28;20260;-79
2021/12/15 03:16:15;;;;;;;31.87;19.33;;;12.50;99.90;;;;;;5064885;28;20226;-79
2021/12/15 03:18:42;;;;;;;34.43;20.00;;;12.50;99.90;;;;;;5060845;28;20235;-79
2021/12/15 03:21:11;;;;;;;31.73;19.77;;;12.50;99.90;;;;;;5066793;28;20230;-79
2021/12/15 03:23:50;;;;;;;32.30;20.37;;;12.50;99.90;;;;;;5064901;28;20236;-80
2021/12/15 03:26:23;;;;;;;32.10;19.90;;;12.50;99.90;;;;;;5054655;28;21032;-79
2021/12/15 03:37:23;;;;;;;33.07;20.20;;;12.60;99.90;;;;;;5065040;28;20260;-80
2021/12/15 03:39:52;;;;;;;38.33;22.43;;;12.60;99.90;;;;;;5066686;28;20282;-80
2021/12/15 03:42:24;;;;;;;38.13;22.70;;;12.60;99.90;;;;;;5067107;28;20690;-81
2021/12/15 03:44:52;;;;;;;38.47;21.83;;;12.60;99.90;;;;;;5080810;28;20223;-81
2021/12/15 03:47:23;;;;;;;39.07;22.87;;;12.60;99.90;;;;;;5068378;28;20223;-80
2021/12/15 03:49:50;;;;;;;39.53;22.40;;;12.60;99.90;;;;;;5061273;28;20224;-80
2021/12/15 03:52:17;;;;;;;38.97;21.80;;;12.60;99.90;;;;;;5068021;28;20226;-80
2021/12/15 03:54:44;;;;;;;42.10;22.63;;;12.70;99.90;;;;;;5066312;28;20436;-80
2021/12/15 03:57:12;;;;;;;37.70;21.47;;;12.70;99.90;;;;;;5065899;28;20245;-80
2021/12/15 03:59:42;;;;;;;35.33;22.13;;;12.70;99.90;;;;;;5068225;28;20303;-80
2021/12/15 04:02:10;;;;;;;37.67;22.67;;;12.70;99.90;;;;;;5059126;28;20254;-80
2021/12/15 04:04:37;;;;;;;41.40;23.37;;;12.70;99.90;;;;;;5065016;28;20233;-81
2021/12/15 04:07:05;;;;;;;42.17;23.17;;;12.70;99.90;;;;;;5065317;28;20227;-79
2021/12/15 04:09:32;;;;;;;39.47;22.50;;;12.70;99.90;;;;;;5058710;28;20234;-80
2021/12/15 04:12:00;;;;;;;42.70;22.60;;;12.80;99.90;;;;;;5064039;28;20246;-79
2021/12/15 04:14:33;;;;;;;38.43;22.73;;;12.80;99.90;;;;;;5061166;28;20404;-79
2021/12/15 04:17:04;;;;;;;37.97;21.57;;;12.80;99.90;;;;;;5065180;28;20265;-78
2021/12/15 04:19:34;;;;;;;39.43;22.30;;;12.80;99.90;;;;;;5061651;28;20235;-78
2021/12/15 04:22:01;;;;;;;42.27;23.07;;;12.80;99.90;;;;;;5062769;28;20594;-79
2021/12/15 04:24:28;;;;;;;38.97;21.33;;;12.80;99.90;;;;;;5066560;28;20245;-79
2021/12/15 04:26:58;;;;;;;39.47;21.80;;;12.80;99.90;;;;;;5063662;28;20210;-79
2021/12/15 04:29:27;;;;;;;39.83;22.23;;;12.80;99.90;;;;;;5068503;28;20313;-78
2021/12/15 04:31:58;;;;;;;39.23;22.23;;;12.90;99.90;;;;;;5060797;28;20241;-79
2021/12/15 04:34:26;;;;;;;40.60;21.90;;;12.90;99.90;;;;;;5069305;28;20220;-79
2021/12/15 04:36:53;;;;;;;41.70;21.67;;;12.90;99.90;;;;;;5066238;28;20226;-79
2021/12/15 04:39:24;;;;;;;43.27;22.10;;;12.90;99.90;;;;;;5069210;28;20218;-79
2021/12/15 04:41:53;;;;;;;43.50;22.23;;;12.90;99.90;;;;;;5065702;28;20215;-80
2021/12/15 04:44:22;;;;;;;41.97;22.20;;;12.90;99.90;;;;;;5066967;28;20306;-79
2021/12/15 04:46:59;;;;;;;39.60;21.63;;;12.90;99.90;;;;;;5066894;28;20686;-79
2021/12/15 04:49:29;;;;;;;42.43;22.63;;;12.90;99.90;;;;;;5068941;28;20767;-78
2021/12/15 04:51:56;;;;;;;39.80;20.53;;;12.90;99.90;;;;;;5072275;28;20217;-80
2021/12/15 04:54:23;;;;;;;40.37;21.90;;;12.90;99.90;;;;;;5069565;28;20223;-81
2021/12/15 04:56:50;;;;;;;40.17;21.13;;;12.80;99.90;;;;;;5070054;28;20310;-79
2021/12/15 04:59:17;;;;;;;38.77;21.20;;;12.90;99.90;;;;;;5069842;28;20683;-81
2021/12/15 05:01:45;;;;;;;40.27;21.03;;;12.90;99.90;;;;;;5065359;28;20249;-79
2021/12/15 05:04:12;;;;;;;43.23;21.77;;;12.90;99.90;;;;;;5064785;28;20686;-80
2021/12/15 05:06:41;;;;;;;43.40;21.70;;;12.90;99.90;;;;;;5065817;28;20235;-80
2021/12/15 05:09:08;;;;;;;39.17;21.57;;;12.90;99.90;;;;;;5068304;28;20262;-79
2021/12/15 05:11:35;;;;;;;39.00;21.63;;;12.90;99.90;;;;;;5067002;28;20302;-79
2021/12/15 05:14:02;;;;;;;45.93;22.37;;;12.90;99.90;;;;;;5065785;28;20244;-79
2021/12/15 05:16:29;;;;;;;44.13;21.50;;;12.90;99.90;;;;;;5065243;28;20234;-80
2021/12/15 05:18:56;;;;;;;43.27;22.50;;;12.90;99.90;;;;;;5066541;28;20238;-80
2021/12/15 05:21:24;;;;;;;40.67;21.57;;;12.90;99.90;;;;;;5068848;28;20221;-80
2021/12/15 05:23:56;;;;;;;42.63;22.20;;;12.90;99.90;;;;;;5070469;28;20593;-80
2021/12/15 05:26:23;;;;;;;39.77;20.23;;;12.90;99.90;;;;;;5068334;28;20226;-80
2021/12/15 05:28:51;;;;;;;42.00;21.53;;;12.90;99.90;;;;;;5070537;28;20233;-80
2021/12/15 05:31:18;;;;;;;40.23;21.07;;;12.90;99.90;;;;;;5061844;28;20304;-83
2021/12/15 05:33:45;;;;;;;40.93;20.40;;;12.90;99.90;;;;;;5070554;28;20238;-81
2021/12/15 05:36:12;;;;;;;42.40;21.43;;;12.90;99.90;;;;;;5067391;28;20218;-83
2021/12/15 05:38:38;;;;;;;42.90;20.73;;;12.90;99.90;;;;;;5069449;28;20215;-85
2021/12/15 05:41:07;;;;;;;43.30;21.73;;;12.90;99.90;;;;;;5068338;28;20870;-84
2021/12/15 05:43:33;;;;;;;46.50;21.57;;;12.90;99.90;;;;;;5065417;28;20229;-83
2021/12/15 05:46:00;;;;;;;69.33;24.40;;;12.90;99.90;;;;;;5068637;28;20757;-90
2021/12/15 05:48:27;;;;;;;46.50;22.30;;;12.90;99.90;;;;;;5069551;28;20233;-82
2021/12/15 05:50:54;;;;;;;47.17;22.37;;;12.90;99.90;;;;;;5067189;28;20207;-84
2021/12/15 05:53:22;;;;;;;70.03;23.40;;;12.90;99.90;;;;;;5064887;28;20233;-83
2021/12/15 05:55:51;;;;;;;46.57;21.77;;;12.90;99.90;;;;;;5069236;28;20225;-86
2021/12/15 05:58:19;;;;;;;51.17;22.53;;;12.90;99.90;;;;;;5067681;28;20229;-84
2021/12/15 06:00:48;;;;;;;46.40;22.90;;;12.90;99.90;;;;;;5058963;28;20228;-84
2021/12/15 06:03:15;;;;;;;60.03;23.83;;;12.90;99.90;;;;;;5061642;28;20247;-84
2021/12/15 06:05:43;;;;;;;50.27;23.07;;;12.90;99.90;;;;;;5067176;28;20326;-84
2021/12/15 06:08:10;;;;;;;53.20;23.47;;;12.90;99.90;;;;;;5062363;28;20225;-83
2021/12/15 06:10:39;;;;;;;48.03;22.57;;;13.00;99.90;;;;;;5062161;28;20247;-84
2021/12/15 06:13:07;;;;;;;49.70;24.07;;;13.00;99.90;;;;;;5065645;28;20333;-85
2021/12/15 06:15:36;;;;;;;58.67;23.70;;;13.00;99.90;;;;;;5068228;28;20219;-84
2021/12/15 06:18:06;;;;;;;56.60;25.03;;;13.00;99.90;;;;;;5065269;28;20228;-85
2021/12/15 06:20:33;;;;;;;55.93;25.43;;;13.00;99.90;;;;;;5061738;28;20232;-84
2021/12/15 06:23:01;;;;;;;53.30;25.00;;;13.00;99.90;;;;;;5067702;28;20278;-84
2021/12/15 06:25:29;;;;;;;54.03;25.10;;;13.00;99.90;;;;;;5063483;28;20220;-85
2021/12/15 06:27:55;;;;;;;57.47;26.07;;;13.10;99.90;;;;;;5065496;28;20620;-83
2021/12/15 06:30:22;;;;;;;51.27;25.07;;;13.10;99.90;;;;;;5061625;28;20214;-84
2021/12/15 06:32:50;;;;;;;58.50;27.93;;;13.10;99.90;;;;;;5067933;28;20223;-84
2021/12/15 06:35:17;;;;;;;61.03;28.37;;;13.10;99.90;;;;;;5064919;28;20229;-84
2021/12/15 06:37:44;;;;;;;60.73;27.27;;;13.10;99.90;;;;;;5066054;28;20250;-85
2021/12/15 06:40:12;;;;;;;58.20;26.77;;;13.10;99.90;;;;;;5063276;28;20688;-84
2021/12/15 06:42:40;;;;;;;59.80;27.70;;;13.10;99.90;;;;;;5064280;28;20580;-84
2021/12/15 06:45:11;;;;;;;60.20;27.60;;;13.10;99.90;;;;;;5056565;28;20302;-84
2021/12/15 06:58:39;;;;;;;59.80;28.10;;;13.20;99.90;;;;;;5050841;28;20221;-85
2021/12/15 07:01:07;;;;;;;59.87;28.37;;;13.20;99.90;;;;;;5054911;28;20228;-85
2021/12/15 07:03:34;;;;;;;58.40;29.07;;;13.20;99.90;;;;;;5053286;28;20255;-85
2021/12/15 07:06:03;;;;;;;58.57;27.93;;;13.20;99.90;;;;;;5065626;28;20228;-84
2021/12/15 07:08:30;;;;;;;57.27;27.70;;;13.20;99.90;;;;;;5056760;28;20257;-85
2021/12/15 07:10:59;;;;;;;63.27;29.30;;;13.20;99.90;;;;;;5063635;28;20597;-86
2021/12/15 07:13:28;;;;;;;56.80;28.67;;;13.20;99.90;;;;;;5061127;28;21040;-85
2021/12/15 07:16:00;;;;;;;61.23;30.10;;;13.20;99.90;;;;;;5057691;28;20231;-85
2021/12/15 07:18:38;;;;;;;60.27;29.93;;;13.20;99.90;;;;;;5063116;28;20232;-85
2021/12/15 07:21:11;;;;;;;61.10;29.37;;;13.20;99.90;;;;;;5063481;28;20220;-84
2021/12/15 07:23:39;;;;;;;61.50;30.43;;;13.20;99.90;;;;;;5064975;28;20219;-85
2021/12/15 07:26:06;;;;;;;58.43;30.70;;;13.20;99.90;;;;;;5059246;28;20220;-84
2021/12/15 07:28:33;;;;;;;62.47;30.97;;;13.20;99.90;;;;;;5065857;28;20278;-84
2021/12/15 07:31:00;;;;;;;62.07;30.87;;;13.20;99.90;;;;;;5059845;28;20226;-84
2021/12/15 07:33:27;;;;;;;60.20;30.43;;;13.30;99.90;;;;;;5064290;28;20296;-85
2021/12/15 07:35:54;;;;;;;58.10;29.80;;;13.30;99.90;;;;;;5064875;28;20224;-85
2021/12/15 07:38:23;;;;;;;59.37;30.07;;;13.30;99.90;;;;;;5064973;28;20234;-85
2021/12/15 07:40:50;;;;;;;63.23;30.80;;;13.30;99.90;;;;;;5061066;28;20218;-84
2021/12/15 07:43:24;;;;;;;54.70;29.37;;;13.30;99.90;;;;;;5058968;28;20236;-83
2021/12/15 07:45:56;;;;;;;56.77;30.23;;;13.30;99.90;;;;;;5063894;28;20231;-85
2021/12/15 07:48:24;;;;;;;55.80;28.63;;;13.40;99.90;;;;;;5062792;28;20305;-85
2021/12/15 07:50:54;;;;;;;56.63;29.60;;;13.40;99.90;;;;;;5066138;28;20860;-84
2021/12/15 07:53:23;;;;;;;54.77;29.27;;;13.40;99.90;;;;;;5057315;28;20325;-83
2021/12/15 07:55:50;;;;;;;50.70;27.20;;;13.40;99.90;;;;;;5057384;28;20215;-84
2021/12/15 07:58:21;;;;;;;49.83;26.67;;;13.40;99.90;;;;;;5062020;28;20311;-85
2021/12/15 08:00:49;;;;;;;47.33;26.43;;;13.40;99.90;;;;;;5051586;28;21179;-85
2021/12/15 08:03:17;;;;;;;47.30;27.63;;;13.40;99.90;;;;;;5058226;28;20262;-85
2021/12/15 08:05:47;;;;;;;47.03;26.87;;;13.50;99.90;;;;;;5061930;28;20227;-85
2021/12/15 08:08:14;;;;;;;46.13;27.87;;;13.50;99.90;;;;;;5058832;28;20229;-84
2021/12/15 08:10:42;;;;;;;46.43;25.90;;;13.50;99.90;;;;;;5061078;28;20771;-85
2021/12/15 08:13:10;;;;;;;44.47;26.03;;;13.50;99.90;;;;;;5062696;28;20224;-85
2021/12/15 08:15:36;;;;;;;43.57;25.43;;;13.50;99.90;;;;;;5059657;28;20215;-84
2021/12/15 08:18:04;;;;;;;46.37;26.37;;;13.50;99.90;;;;;;5058423;28;21073;-83
2021/12/15 08:20:33;;;;;;;44.03;25.40;;;13.50;99.90;;;;;;5057342;28;20251;-83
2021/12/15 08:22:59;;;;;;;42.40;26.07;;;13.50;99.90;;;;;;5062028;28;20226;-85
2021/12/15 08:25:27;;;;;;;45.83;26.23;;;13.60;99.90;;;;;;5062063;28;20224;-84
2021/12/15 08:27:55;;;;;;;38.67;24.37;;;13.60;99.90;;;;;;5052517;28;20232;-83
2021/12/15 08:30:27;;;;;;;41.70;24.87;;;13.60;99.90;;;;;;5062817;28;20315;-84
2021/12/15 08:32:56;;;;;;;38.70;23.37;;;13.60;99.90;;;;;;5056353;28;20227;-84
2021/12/15 08:35:26;;;;;;;42.77;25.40;;;13.60;99.90;;;;;;5060218;28;20211;-84
2021/12/15 08:37:54;;;;;;;40.97;24.70;;;13.60;99.90;;;;;;5059092;28;20227;-84
2021/12/15 08:40:23;;;;;;;42.70;25.07;;;13.60;99.90;;;;;;5068694;28;21933;-83
2021/12/15 08:42:50;;;;;;;38.87;24.83;;;13.60;99.90;;;;;;5063396;28;20239;-84
2021/12/15 08:45:19;;;;;;;37.33;24.20;;;13.70;99.90;;;;;;5060786;28;20227;-84
2021/12/15 08:47:46;;;;;;;38.83;24.03;;;13.70;99.90;;;;;;5063536;28;20223;-84
2021/12/15 08:50:26;;;;;;;40.10;23.73;;;13.70;99.90;;;;;;5053900;28;20229;-84
2021/12/15 08:52:53;;;;;;;37.80;23.73;;;13.70;99.90;;;;;;5056888;28;20756;-84
2021/12/15 08:55:20;;;;;;;40.17;23.70;;;13.70;99.90;;;;;;5061691;28;20221;-83
2021/12/15 08:57:50;;;;;;;37.73;23.90;;;13.70;99.90;;;;;;5062200;28;20273;-84
2021/12/15 09:00:20;;;;;;;39.37;24.10;;;13.80;99.90;;;;;;5056614;28;20310;-84
2021/12/15 09:02:47;;;;;;;39.47;24.60;;;13.80;99.90;;;;;;5060947;28;20218;-84
2021/12/15 09:05:20;;;;;;;39.07;23.77;;;13.80;99.90;;;;;;5054034;28;20240;-84
2021/12/15 09:07:48;;;;;;;38.53;24.97;;;13.80;99.90;;;;;;5053054;28;20224;-84
2021/12/15 09:10:15;;;;;;;39.10;24.50;;;13.80;99.90;;;;;;5065028;28;20235;-84
2021/12/15 09:12:42;;;;;;;38.87;24.20;;;13.80;99.90;;;;;;5064804;28;20228;-82
2021/12/15 09:15:09;;;;;;;37.93;23.87;;;13.80;99.90;;;;;;5055364;28;20222;-84
2021/12/15 09:17:38;;;;;;;38.73;24.77;;;13.80;99.90;;;;;;5064657;28;20274;-82
2021/12/15 09:20:06;;;;;;;40.70;24.83;;;13.80;99.90;;;;;;5063633;28;20224;-81
2021/12/15 09:22:33;;;;;;;43.10;25.37;;;13.80;99.90;;;;;;5067094;28;20226;-81
2021/12/15 09:25:00;;;;;;;36.70;24.20;;;13.90;99.90;;;;;;5065952;28;21629;-81
2021/12/15 09:27:27;;;;;;;41.00;24.87;;;13.90;99.90;;;;;;5062092;28;20224;-81
2021/12/15 09:29:54;;;;;;;40.00;24.40;;;13.90;99.90;;;;;;5059329;28;20939;-82
2021/12/15 09:32:21;;;;;;;36.63;24.67;;;13.80;99.90;;;;;;5062647;28;20238;-82
2021/12/15 09:34:49;;;;;;;37.80;24.93;;;13.90;99.90;;;;;;5062549;28;20943;-82
2021/12/15 09:37:18;;;;;;;39.83;24.77;;;13.90;99.90;;;;;;5067009;28;20227;-81
2021/12/15 09:39:44;;;;;;;37.97;24.77;;;13.90;99.90;;;;;;5066942;28;20293;-82
2021/12/15 09:42:16;;;;;;;38.13;24.37;;;13.80;99.90;;;;;;5063906;28;20222;-82
2021/12/15 09:44:43;;;;;;;37.90;24.03;;;13.80;99.90;;;;;;5072745;28;20237;-81
2021/12/15 09:47:18;;;;;;;37.03;24.57;;;13.80;99.90;;;;;;5069637;28;20229;-82
2021/12/15 10:03:46;;;;;;;41.60;25.27;;;13.90;99.90;;;;;;5072263;28;20245;-82
2021/12/15 10:06:27;;;;;;;38.63;25.17;;;13.90;99.90;;;;;;5074443;28;20252;-81
2021/12/15 10:12:18;;;;;;;41.20;25.13;;;13.90;99.90;;;;;;5071716;28;20299;-80
2021/12/15 10:17:46;;;;;;;40.50;24.90;;;13.90;99.90;;;;;;5022149;28;20224;-80
2021/12/15 10:20:18;;;;;;;37.80;24.83;;;13.90;99.90;;;;;;5075846;28;20227;-81
2021/12/15 10:22:47;;;;;;;42.53;26.47;;;13.90;99.90;;;;;;5071766;28;21009;-81
2021/12/15 10:25:20;;;;;;;42.73;25.40;;;13.90;99.90;;;;;;5076215;28;20325;-82
2021/12/15 10:27:49;;;;;;;41.90;24.90;;;13.90;99.90;;;;;;5070109;28;20240;-81
2021/12/15 10:30:23;;;;;;;41.17;25.47;;;13.90;99.90;;;;;;5089083;28;20248;-81
2021/12/15 10:32:55;;;;;;;42.50;24.60;;;13.90;99.90;;;;;;5069718;28;20275;-81
2021/12/15 10:35:26;;;;;;;41.20;26.17;;;14.00;99.90;;;;;;5071832;28;20247;-81
2021/12/15 10:38:20;;;;;;;39.93;25.33;;;14.00;99.90;;;;;;5067569;28;20305;-81
2021/12/15 10:40:52;;;;;;;41.03;24.63;;;14.00;99.90;;;;;;5068925;28;20327;-79
2021/12/15 10:43:19;;;;;;;40.90;24.03;;;14.00;99.90;;;;;;5070212;28;20772;-80
2021/12/15 10:45:50;;;;;;;41.13;25.63;;;14.00;99.90;;;;;;5072013;28;20288;-80
2021/12/15 10:48:25;;;;;;;39.20;24.80;;;14.00;99.90;;;;;;5069051;28;20320;-81
2021/12/15 10:50:53;;;;;;;40.60;24.73;;;14.00;99.90;;;;;;5075177;28;20251;-80
2021/12/15 10:53:32;;;;;;;44.13;27.03;;;14.00;99.90;;;;;;5075282;28;20222;-80
2021/12/15 10:56:00;;;;;;;40.60;25.63;;;14.00;99.90;;;;;;5072022;28;20229;-80
2021/12/15 10:58:37;;;;;;;39.10;24.83;;;14.10;99.90;;;;;;5073482;28;20767;-80
2021/12/15 11:01:08;;;;;;;37.77;26.20;;;14.10;99.90;;;;;;5066919;28;20233;-80
2021/12/15 11:03:37;;;;;;;40.70;25.47;;;14.10;99.90;;;;;;5075375;28;20233;-80
2021/12/15 11:06:21;;;;;;;43.63;25.40;;;14.10;99.90;;;;;;5071969;28;20218;-80
2021/12/15 11:08:48;;;;;;;43.90;26.17;;;14.20;99.90;;;;;;5072702;28;20312;-81
2021/12/15 11:11:29;;;;;;;46.97;27.57;;;14.20;99.90;;;;;;5075255;28;20248;-80
2021/12/15 11:13:56;;;;;;;43.87;27.13;;;14.10;99.90;;;;;;5075118;28;20352;-81
2021/12/15 11:16:30;;;;;;;41.20;26.67;;;14.20;99.90;;;;;;5074726;28;20221;-80
2021/12/15 11:18:59;;;;;;;43.50;25.43;;;14.20;99.90;;;;;;5068621;28;20319;-80
2021/12/15 11:21:32;;;;;;;41.40;26.23;;;14.20;99.90;;;;;;5071995;28;20295;-80
2021/12/15 11:24:01;;;;;;;39.57;26.00;;;14.20;99.90;;;;;;5070046;28;20783;-81
2021/12/15 11:26:31;;;;;;;41.93;26.47;;;14.20;99.90;;;;;;5065243;28;20222;-80
2021/12/15 11:28:58;;;;;;;43.63;26.47;;;14.20;99.90;;;;;;5063039;28;20217;-81
2021/12/15 11:31:27;;;;;;;45.33;26.23;;;14.20;99.90;;;;;;5068082;28;20228;-81
2021/12/15 11:33:56;;;;;;;42.57;26.50;;;14.20;99.90;;;;;;5066862;28;20220;-80
2021/12/15 11:36:26;;;;;;;40.40;24.27;;;14.20;99.90;;;;;;5063551;28;20225;-80
2021/12/15 11:38:56;;;;;;;41.63;26.20;;;14.20;99.90;;;;;;5069404;28;20245;-80
2021/12/15 11:41:27;;;;;;;42.63;26.10;;;14.20;99.90;;;;;;5068337;28;20734;-81
2021/12/15 11:43:57;;;;;;;47.13;28.03;;;14.20;99.90;;;;;;5071849;28;20228;-81
2021/12/15 11:46:28;;;;;;;46.97;27.83;;;14.20;99.90;;;;;;5063072;28;21070;-80
2021/12/15 11:48:59;;;;;;;44.20;27.37;;;14.20;99.90;;;;;;5069035;28;20220;-80
2021/12/15 11:51:36;;;;;;;47.30;28.20;;;14.20;99.90;;;;;;5059523;28;20223;-81
2021/12/15 11:54:04;;;;;;;46.73;27.60;;;14.20;99.90;;;;;;5063247;28;20772;-80
2021/12/15 11:56:33;;;;;;;42.17;26.07;;;14.20;99.90;;;;;;5064449;28;20241;-81
2021/12/15 11:59:19;;;;;;;43.53;26.33;;;14.20;99.90;;;;;;5064253;28;20310;-80
2021/12/15 12:01:53;;;;;;;42.23;26.17;;;14.10;99.90;;;;;;5072376;28;20753;-80
2021/12/15 12:04:25;;;;;;;41.57;26.77;;;14.20;99.90;;;;;;5079003;28;20228;-80
2021/12/15 12:06:55;;;;;;;47.63;27.40;;;14.20;99.90;;;;;;5068351;28;20221;-81
2021/12/15 12:09:24;;;;;;;44.37;26.83;;;14.20;99.90;;;;;;5072542;28;20237;-80
2021/12/15 12:11:56;;;;;;;40.83;25.80;;;14.20;99.90;;;;;;5081082;28;20217;-80
2021/12/15 12:17:12;;;;;;;42.33;25.83;;;14.20;99.90;;;;;;5073761;28;20273;-81
2021/12/15 12:19:46;;;;;;;42.13;25.37;;;14.20;99.90;;;;;;5071790;28;20259;-80
2021/12/15 12:22:14;;;;;;;43.20;25.73;;;14.20;99.90;;;;;;5065673;28;20221;-81
2021/12/15 12:24:44;;;;;;;43.67;27.17;;;14.20;99.90;;;;;;5062801;28;20251;-81
2021/12/15 12:27:12;;;;;;;44.53;26.23;;;14.20;99.90;;;;;;5062476;28;20253;-81
2021/12/15 12:29:40;;;;;;;41.97;26.20;;;14.20;99.90;;;;;;5069608;28;20217;-81
2021/12/15 12:32:08;;;;;;;40.93;25.93;;;14.20;99.90;;;;;;5073655;28;20233;-81
2021/12/15 12:34:35;;;;;;;42.40;26.13;;;14.20;99.90;;;;;;5069150;28;20224;-80
2021/12/15 12:37:01;;;;;;;41.10;25.23;;;14.20;99.90;;;;;;5065316;28;20234;-80
2021/12/15 12:39:33;;;;;;;43.07;26.00;;;14.20;99.90;;;;;;5073248;28;20594;-81
2021/12/15 12:42:01;;;;;;;41.03;24.73;;;14.20;99.90;;;;;;5064610;28;20223;-81
2021/12/15 12:44:35;;;;;;;41.27;25.37;;;14.20;99.90;;;;;;5067538;28;20229;-80
2021/12/15 12:47:11;;;;;;;42.93;24.27;;;14.20;99.90;;;;;;5066751;28;20786;-81
2021/12/15 12:50:12;;;;;;;39.00;23.83;;;14.20;99.90;;;;;;5072681;28;20702;-80
2021/12/15 13:01:20;;;;;;;35.03;22.87;;;14.20;99.90;;;;;;5064563;28;20231;-80
2021/12/15 13:03:53;;;;;;;40.33;23.60;;;14.20;99.90;;;;;;5076480;28;20211;-81
2021/12/15 13:06:22;;;;;;;38.00;22.53;;;14.20;99.90;;;;;;5066852;28;20225;-81
2021/12/15 13:08:54;;;;;;;38.40;23.13;;;14.20;99.90;;;;;;5074817;28;20236;-81
2021/12/15 13:11:34;;;;;;;36.77;22.83;;;14.20;99.90;;;;;;5075809;28;20213;-81
2021/12/15 13:14:04;;;;;;;38.33;23.57;;;14.20;99.90;;;;;;5073066;28;20240;-81
2021/12/15 13:16:37;;;;;;;36.57;21.80;;;14.20;99.90;;;;;;5079594;28;20256;-81
2021/12/15 13:19:18;;;;;;;37.60;22.33;;;14.20;99.90;;;;;;5077437;28;20228;-81
2021/12/15 13:21:55;;;;;;;35.93;21.33;;;14.20;99.90;;;;;;5074028;28;20258;-81
2021/12/15 13:30:05;;;;;;;34.57;21.57;;;14.10;99.90;;;;;;5053293;28;20277;-81
2021/12/15 13:32:37;;;;;;;32.77;20.77;;;14.10;99.90;;;;;;5074646;28;20232;-81
2021/12/15 13:35:06;;;;;;;34.67;20.80;;;14.00;99.90;;;;;;5081449;28;20763;-81
2021/12/15 13:37:52;;;;;;;37.23;20.37;;;14.00;99.90;;;;;;5071100;28;21088;-81
2021/12/15 13:40:59;;;;;;;33.93;19.67;;;14.00;99.90;;;;;;5078992;28;20216;-80
2021/12/15 13:43:41;;;;;;;35.00;20.73;;;14.00;99.90;;;;;;5069765;28;20227;-81
2021/12/15 13:46:10;;;;;;;33.27;19.67;;;14.00;99.90;;;;;;5072438;28;20247;-81
2021/12/15 13:48:55;;;;;;;30.90;19.57;;;13.90;99.90;;;;;;5084389;28;20327;-81
2021/12/15 13:51:59;;;;;;;31.87;20.07;;;13.90;99.90;;;;;;5079346;28;20677;-81
2021/12/15 13:54:52;;;;;;;35.73;21.70;;;13.90;99.90;;;;;;5066364;28;20243;-81
2021/12/15 13:57:23;;;;;;;33.73;22.00;;;13.90;99.90;;;;;;5076512;28;20715;-80
2021/12/15 14:00:04;;;;;;;32.83;21.47;;;13.90;99.90;;;;;;5066121;28;20295;-81